sensor_id;sensor_type;location;lat;lon;timestamp;P1;durP1;ratioP1;P2;durP2;ratioP2
77276;SDS011;66330;52.166;9.978;2023-09-07T00:01:46;4.13;;;2.80;;
77276;SDS011;66330;52.166;9.978;2023-09-07T00:04:11;2.83;;;2.63;;
77276;SDS011;66330;52.166;9.978;2023-09-07T00:06:38;4.10;;;3.03;;
77276;SDS011;66330;52.166;9.978;2023-09-07T00:09:04;3.30;;;3.00;;
77276;SDS011;66330;52.166;9.978;2023-09-07T00:11:31;3.40;;;3.03;;
77276;SDS011;66330;52.166;9.978;2023-09-07T00:13:57;6.50;;;3.87;;
77276;SDS011;66330;52.166;9.978;2023-09-07T00:16:24;4.93;;;3.13;;
77276;SDS011;66330;52.166;9.978;2023-09-07T00:18:50;5.40;;;3.00;;
77276;SDS011;66330;52.166;9.978;2023-09-07T00:21:16;4.90;;;3.60;;
77276;SDS011;66330;52.166;9.978;2023-09-07T00:23:42;3.17;;;2.60;;
77276;SDS011;66330;52.166;9.978;2023-09-07T00:26:08;4.27;;;3.03;;
77276;SDS011;66330;52.166;9.978;2023-09-07T00:28:34;3.87;;;3.10;;
77276;SDS011;66330;52.166;9.978;2023-09-07T00:31:00;2.80;;;2.50;;
77276;SDS011;66330;52.166;9.978;2023-09-07T00:33:25;4.77;;;4.07;;
77276;SDS011;66330;52.166;9.978;2023-09-07T00:35:51;3.87;;;3.40;;
77276;SDS011;66330;52.166;9.978;2023-09-07T00:38:17;3.13;;;2.93;;
77276;SDS011;66330;52.166;9.978;2023-09-07T00:40:43;3.27;;;2.97;;
77276;SDS011;66330;52.166;9.978;2023-09-07T00:43:13;4.67;;;3.87;;
77276;SDS011;66330;52.166;9.978;2023-09-07T00:45:39;4.37;;;3.97;;
77276;SDS011;66330;52.166;9.978;2023-09-07T00:48:05;4.20;;;3.80;;
77276;SDS011;66330;52.166;9.978;2023-09-07T00:50:31;3.83;;;3.23;;
77276;SDS011;66330;52.166;9.978;2023-09-07T00:52:57;3.70;;;3.40;;
77276;SDS011;66330;52.166;9.978;2023-09-07T00:55:25;3.83;;;3.27;;
77276;SDS011;66330;52.166;9.978;2023-09-07T00:57:52;3.87;;;3.30;;
77276;SDS011;66330;52.166;9.978;2023-09-07T01:00:18;3.77;;;2.93;;
77276;SDS011;66330;52.166;9.978;2023-09-07T01:02:44;4.33;;;3.00;;
77276;SDS011;66330;52.166;9.978;2023-09-07T01:05:10;3.77;;;3.47;;
77276;SDS011;66330;52.166;9.978;2023-09-07T01:07:43;4.17;;;3.73;;
77276;SDS011;66330;52.166;9.978;2023-09-07T01:10:10;3.63;;;3.33;;
77276;SDS011;66330;52.166;9.978;2023-09-07T01:12:36;6.30;;;3.20;;
77276;SDS011;66330;52.166;9.978;2023-09-07T01:15:02;3.60;;;3.30;;
77276;SDS011;66330;52.166;9.978;2023-09-07T01:17:29;3.97;;;3.40;;
77276;SDS011;66330;52.166;9.978;2023-09-07T01:19:56;4.17;;;3.20;;
77276;SDS011;66330;52.166;9.978;2023-09-07T01:22:24;4.73;;;4.03;;
77276;SDS011;66330;52.166;9.978;2023-09-07T01:24:50;4.83;;;3.53;;
77276;SDS011;66330;52.166;9.978;2023-09-07T01:27:17;4.20;;;3.37;;
77276;SDS011;66330;52.166;9.978;2023-09-07T01:29:43;3.90;;;3.57;;
77276;SDS011;66330;52.166;9.978;2023-09-07T01:32:09;4.90;;;3.70;;
77276;SDS011;66330;52.166;9.978;2023-09-07T01:34:36;4.63;;;4.23;;
77276;SDS011;66330;52.166;9.978;2023-09-07T01:37:02;5.23;;;4.03;;
77276;SDS011;66330;52.166;9.978;2023-09-07T01:39:27;5.60;;;4.30;;
77276;SDS011;66330;52.166;9.978;2023-09-07T01:41:53;4.17;;;3.70;;
77276;SDS011;66330;52.166;9.978;2023-09-07T01:44:19;4.30;;;3.90;;
77276;SDS011;66330;52.166;9.978;2023-09-07T01:46:45;5.00;;;3.70;;
77276;SDS011;66330;52.166;9.978;2023-09-07T01:49:11;4.53;;;4.13;;
77276;SDS011;66330;52.166;9.978;2023-09-07T01:51:37;3.90;;;3.50;;
77276;SDS011;66330;52.166;9.978;2023-09-07T01:54:03;3.90;;;3.60;;
77276;SDS011;66330;52.166;9.978;2023-09-07T01:56:30;4.27;;;3.70;;
77276;SDS011;66330;52.166;9.978;2023-09-07T01:58:56;4.30;;;3.77;;
77276;SDS011;66330;52.166;9.978;2023-09-07T02:01:27;5.93;;;4.17;;
77276;SDS011;66330;52.166;9.978;2023-09-07T02:03:57;5.20;;;3.60;;
77276;SDS011;66330;52.166;9.978;2023-09-07T02:06:23;5.60;;;5.00;;
77276;SDS011;66330;52.166;9.978;2023-09-07T02:08:49;3.73;;;3.27;;
77276;SDS011;66330;52.166;9.978;2023-09-07T02:11:15;5.70;;;3.97;;
77276;SDS011;66330;52.166;9.978;2023-09-07T02:13:41;4.97;;;4.27;;
77276;SDS011;66330;52.166;9.978;2023-09-07T02:16:08;5.50;;;4.30;;
77276;SDS011;66330;52.166;9.978;2023-09-07T02:18:33;5.63;;;4.63;;
77276;SDS011;66330;52.166;9.978;2023-09-07T02:21:03;5.90;;;5.33;;
77276;SDS011;66330;52.166;9.978;2023-09-07T02:23:30;8.00;;;3.90;;
77276;SDS011;66330;52.166;9.978;2023-09-07T02:25:56;5.00;;;4.37;;
77276;SDS011;66330;52.166;9.978;2023-09-07T02:28:23;4.80;;;4.30;;
77276;SDS011;66330;52.166;9.978;2023-09-07T02:30:52;3.83;;;3.43;;
77276;SDS011;66330;52.166;9.978;2023-09-07T02:33:18;5.10;;;4.10;;
77276;SDS011;66330;52.166;9.978;2023-09-07T02:35:44;4.37;;;3.67;;
77276;SDS011;66330;52.166;9.978;2023-09-07T02:38:10;4.10;;;3.70;;
77276;SDS011;66330;52.166;9.978;2023-09-07T02:40:42;5.10;;;4.20;;
77276;SDS011;66330;52.166;9.978;2023-09-07T02:43:08;4.27;;;3.83;;
77276;SDS011;66330;52.166;9.978;2023-09-07T02:45:34;8.13;;;4.43;;
77276;SDS011;66330;52.166;9.978;2023-09-07T02:48:00;4.60;;;4.20;;
77276;SDS011;66330;52.166;9.978;2023-09-07T02:50:29;5.20;;;4.40;;
77276;SDS011;66330;52.166;9.978;2023-09-07T02:52:55;6.03;;;4.40;;
77276;SDS011;66330;52.166;9.978;2023-09-07T02:55:21;3.73;;;3.43;;
77276;SDS011;66330;52.166;9.978;2023-09-07T02:57:47;5.57;;;3.60;;
77276;SDS011;66330;52.166;9.978;2023-09-07T03:00:13;4.70;;;4.10;;
77276;SDS011;66330;52.166;9.978;2023-09-07T03:02:42;4.10;;;3.70;;
77276;SDS011;66330;52.166;9.978;2023-09-07T03:05:08;4.93;;;4.23;;
77276;SDS011;66330;52.166;9.978;2023-09-07T03:07:34;4.77;;;4.37;;
77276;SDS011;66330;52.166;9.978;2023-09-07T03:10:00;4.63;;;4.10;;
77276;SDS011;66330;52.166;9.978;2023-09-07T03:12:26;5.17;;;4.00;;
77276;SDS011;66330;52.166;9.978;2023-09-07T03:14:53;5.20;;;4.27;;
77276;SDS011;66330;52.166;9.978;2023-09-07T03:17:19;5.40;;;3.83;;
77276;SDS011;66330;52.166;9.978;2023-09-07T03:19:48;4.20;;;3.60;;
77276;SDS011;66330;52.166;9.978;2023-09-07T03:22:14;5.63;;;4.57;;
77276;SDS011;66330;52.166;9.978;2023-09-07T03:24:40;4.63;;;4.20;;
77276;SDS011;66330;52.166;9.978;2023-09-07T03:27:06;9.43;;;8.10;;
77276;SDS011;66330;52.166;9.978;2023-09-07T03:29:32;8.40;;;7.30;;
77276;SDS011;66330;52.166;9.978;2023-09-07T03:31:59;6.50;;;6.00;;
77276;SDS011;66330;52.166;9.978;2023-09-07T03:34:25;5.00;;;4.50;;
77276;SDS011;66330;52.166;9.978;2023-09-07T03:36:51;5.50;;;4.97;;
77276;SDS011;66330;52.166;9.978;2023-09-07T03:39:17;5.97;;;4.40;;
77276;SDS011;66330;52.166;9.978;2023-09-07T03:41:44;5.03;;;4.53;;
77276;SDS011;66330;52.166;9.978;2023-09-07T03:44:10;6.33;;;5.37;;
77276;SDS011;66330;52.166;9.978;2023-09-07T03:46:36;14.90;;;5.20;;
77276;SDS011;66330;52.166;9.978;2023-09-07T03:49:02;9.57;;;8.67;;
77276;SDS011;66330;52.166;9.978;2023-09-07T03:51:28;5.97;;;5.30;;
77276;SDS011;66330;52.166;9.978;2023-09-07T03:53:54;6.47;;;5.13;;
77276;SDS011;66330;52.166;9.978;2023-09-07T03:56:20;5.57;;;5.07;;
77276;SDS011;66330;52.166;9.978;2023-09-07T03:58:46;8.40;;;7.20;;
77276;SDS011;66330;52.166;9.978;2023-09-07T04:01:12;7.40;;;5.37;;
77276;SDS011;66330;52.166;9.978;2023-09-07T04:03:38;5.10;;;4.50;;
77276;SDS011;66330;52.166;9.978;2023-09-07T04:06:07;4.90;;;4.40;;
77276;SDS011;66330;52.166;9.978;2023-09-07T04:08:33;10.43;;;6.40;;
77276;SDS011;66330;52.166;9.978;2023-09-07T04:11:03;6.80;;;5.90;;
77276;SDS011;66330;52.166;9.978;2023-09-07T04:13:29;11.33;;;6.87;;
77276;SDS011;66330;52.166;9.978;2023-09-07T04:15:55;8.70;;;6.63;;
77276;SDS011;66330;52.166;9.978;2023-09-07T04:18:21;7.07;;;6.37;;
77276;SDS011;66330;52.166;9.978;2023-09-07T04:20:47;4.80;;;4.40;;
77276;SDS011;66330;52.166;9.978;2023-09-07T04:23:13;5.20;;;4.50;;
77276;SDS011;66330;52.166;9.978;2023-09-07T04:25:39;7.70;;;6.97;;
77276;SDS011;66330;52.166;9.978;2023-09-07T04:28:05;14.83;;;11.00;;
77276;SDS011;66330;52.166;9.978;2023-09-07T04:30:32;9.50;;;8.37;;
77276;SDS011;66330;52.166;9.978;2023-09-07T04:32:58;8.07;;;6.67;;
77276;SDS011;66330;52.166;9.978;2023-09-07T04:35:30;7.40;;;5.70;;
77276;SDS011;66330;52.166;9.978;2023-09-07T04:37:57;5.30;;;4.60;;
77276;SDS011;66330;52.166;9.978;2023-09-07T04:40:24;5.40;;;4.90;;
77276;SDS011;66330;52.166;9.978;2023-09-07T04:42:50;6.90;;;5.00;;
77276;SDS011;66330;52.166;9.978;2023-09-07T04:45:16;5.00;;;4.50;;
77276;SDS011;66330;52.166;9.978;2023-09-07T04:47:42;5.00;;;4.40;;
77276;SDS011;66330;52.166;9.978;2023-09-07T04:50:08;7.50;;;5.43;;
77276;SDS011;66330;52.166;9.978;2023-09-07T04:52:34;5.00;;;4.50;;
77276;SDS011;66330;52.166;9.978;2023-09-07T04:55:01;6.00;;;4.87;;
77276;SDS011;66330;52.166;9.978;2023-09-07T04:57:27;5.53;;;4.93;;
77276;SDS011;66330;52.166;9.978;2023-09-07T04:59:53;4.80;;;4.30;;
77276;SDS011;66330;52.166;9.978;2023-09-07T05:02:19;5.93;;;4.40;;
77276;SDS011;66330;52.166;9.978;2023-09-07T05:04:45;6.90;;;4.83;;
77276;SDS011;66330;52.166;9.978;2023-09-07T05:07:10;6.63;;;4.40;;
77276;SDS011;66330;52.166;9.978;2023-09-07T05:09:37;4.90;;;4.50;;
77276;SDS011;66330;52.166;9.978;2023-09-07T05:12:03;6.10;;;5.00;;
77276;SDS011;66330;52.166;9.978;2023-09-07T05:14:29;6.93;;;5.70;;
77276;SDS011;66330;52.166;9.978;2023-09-07T05:16:55;7.27;;;4.93;;
77276;SDS011;66330;52.166;9.978;2023-09-07T05:19:21;5.50;;;4.90;;
77276;SDS011;66330;52.166;9.978;2023-09-07T05:21:47;4.70;;;4.30;;
77276;SDS011;66330;52.166;9.978;2023-09-07T05:24:13;6.53;;;4.77;;
77276;SDS011;66330;52.166;9.978;2023-09-07T05:26:41;5.60;;;5.10;;
77276;SDS011;66330;52.166;9.978;2023-09-07T05:29:07;5.63;;;5.13;;
77276;SDS011;66330;52.166;9.978;2023-09-07T05:31:33;6.70;;;4.97;;
77276;SDS011;66330;52.166;9.978;2023-09-07T05:33:59;6.27;;;5.67;;
77276;SDS011;66330;52.166;9.978;2023-09-07T05:36:26;6.47;;;5.00;;
77276;SDS011;66330;52.166;9.978;2023-09-07T05:38:52;5.93;;;5.30;;
77276;SDS011;66330;52.166;9.978;2023-09-07T05:41:18;5.70;;;5.00;;
77276;SDS011;66330;52.166;9.978;2023-09-07T05:43:44;5.53;;;4.40;;
77276;SDS011;66330;52.166;9.978;2023-09-07T05:46:10;4.93;;;4.53;;
77276;SDS011;66330;52.166;9.978;2023-09-07T05:48:36;5.87;;;4.70;;
77276;SDS011;66330;52.166;9.978;2023-09-07T05:51:02;4.30;;;3.90;;
77276;SDS011;66330;52.166;9.978;2023-09-07T05:53:28;5.20;;;4.47;;
77276;SDS011;66330;52.166;9.978;2023-09-07T05:55:54;5.77;;;4.93;;
77276;SDS011;66330;52.166;9.978;2023-09-07T05:58:20;6.00;;;4.37;;
77276;SDS011;66330;52.166;9.978;2023-09-07T06:00:46;5.10;;;4.60;;
77276;SDS011;66330;52.166;9.978;2023-09-07T06:03:12;5.70;;;4.40;;
77276;SDS011;66330;52.166;9.978;2023-09-07T06:05:38;9.20;;;4.90;;
77276;SDS011;66330;52.166;9.978;2023-09-07T06:08:04;5.30;;;4.43;;
77276;SDS011;66330;52.166;9.978;2023-09-07T06:10:33;4.90;;;4.40;;
77276;SDS011;66330;52.166;9.978;2023-09-07T06:12:59;5.47;;;4.97;;
77276;SDS011;66330;52.166;9.978;2023-09-07T06:15:25;5.20;;;4.50;;
77276;SDS011;66330;52.166;9.978;2023-09-07T06:17:52;6.93;;;4.30;;
77276;SDS011;66330;52.166;9.978;2023-09-07T06:20:19;5.00;;;4.40;;
77276;SDS011;66330;52.166;9.978;2023-09-07T06:22:45;7.63;;;4.83;;
77276;SDS011;66330;52.166;9.978;2023-09-07T06:25:11;5.57;;;5.17;;
77276;SDS011;66330;52.166;9.978;2023-09-07T06:27:37;7.90;;;6.40;;
77276;SDS011;66330;52.166;9.978;2023-09-07T06:30:04;6.30;;;4.40;;
77276;SDS011;66330;52.166;9.978;2023-09-07T06:32:30;5.23;;;4.73;;
77276;SDS011;66330;52.166;9.978;2023-09-07T06:34:57;5.10;;;4.60;;
77276;SDS011;66330;52.166;9.978;2023-09-07T06:37:23;5.73;;;5.00;;
77276;SDS011;66330;52.166;9.978;2023-09-07T06:39:53;4.80;;;4.40;;
77276;SDS011;66330;52.166;9.978;2023-09-07T06:42:19;5.23;;;4.63;;
77276;SDS011;66330;52.166;9.978;2023-09-07T06:44:45;6.23;;;5.63;;
77276;SDS011;66330;52.166;9.978;2023-09-07T06:47:11;5.40;;;4.90;;
77276;SDS011;66330;52.166;9.978;2023-09-07T06:49:37;7.33;;;4.83;;
77276;SDS011;66330;52.166;9.978;2023-09-07T06:52:03;4.90;;;4.40;;
77276;SDS011;66330;52.166;9.978;2023-09-07T06:54:29;6.73;;;6.00;;
77276;SDS011;66330;52.166;9.978;2023-09-07T06:56:55;11.23;;;5.50;;
77276;SDS011;66330;52.166;9.978;2023-09-07T06:59:21;4.33;;;3.97;;
77276;SDS011;66330;52.166;9.978;2023-09-07T07:01:46;4.50;;;4.10;;
77276;SDS011;66330;52.166;9.978;2023-09-07T07:04:12;4.20;;;3.80;;
77276;SDS011;66330;52.166;9.978;2023-09-07T07:06:38;4.13;;;3.77;;
77276;SDS011;66330;52.166;9.978;2023-09-07T07:09:05;4.00;;;3.63;;
77276;SDS011;66330;52.166;9.978;2023-09-07T07:11:31;4.57;;;4.07;;
77276;SDS011;66330;52.166;9.978;2023-09-07T07:13:57;5.13;;;4.40;;
77276;SDS011;66330;52.166;9.978;2023-09-07T07:16:23;4.30;;;3.90;;
77276;SDS011;66330;52.166;9.978;2023-09-07T07:18:49;4.40;;;4.00;;
77276;SDS011;66330;52.166;9.978;2023-09-07T07:21:15;4.47;;;4.07;;
77276;SDS011;66330;52.166;9.978;2023-09-07T07:23:41;4.17;;;3.70;;
77276;SDS011;66330;52.166;9.978;2023-09-07T07:26:07;4.27;;;3.87;;
77276;SDS011;66330;52.166;9.978;2023-09-07T07:28:33;3.90;;;3.60;;
77276;SDS011;66330;52.166;9.978;2023-09-07T07:31:06;4.57;;;4.17;;
77276;SDS011;66330;52.166;9.978;2023-09-07T07:33:32;3.80;;;3.50;;
77276;SDS011;66330;52.166;9.978;2023-09-07T07:35:58;4.40;;;3.63;;
77276;SDS011;66330;52.166;9.978;2023-09-07T07:38:24;3.77;;;3.17;;
77276;SDS011;66330;52.166;9.978;2023-09-07T07:40:50;3.53;;;3.33;;
77276;SDS011;66330;52.166;9.978;2023-09-07T07:43:17;4.00;;;3.60;;
77276;SDS011;66330;52.166;9.978;2023-09-07T07:45:45;4.97;;;4.03;;
77276;SDS011;66330;52.166;9.978;2023-09-07T07:48:11;5.50;;;3.70;;
77276;SDS011;66330;52.166;9.978;2023-09-07T07:50:37;4.20;;;3.80;;
77276;SDS011;66330;52.166;9.978;2023-09-07T07:53:07;3.90;;;3.50;;
77276;SDS011;66330;52.166;9.978;2023-09-07T07:55:36;4.30;;;3.77;;
77276;SDS011;66330;52.166;9.978;2023-09-07T07:58:06;3.70;;;3.40;;
77276;SDS011;66330;52.166;9.978;2023-09-07T08:00:36;4.07;;;3.67;;
77276;SDS011;66330;52.166;9.978;2023-09-07T08:03:02;4.60;;;4.20;;
77276;SDS011;66330;52.166;9.978;2023-09-07T08:05:31;4.67;;;4.27;;
77276;SDS011;66330;52.166;9.978;2023-09-07T08:07:57;4.50;;;3.90;;
77276;SDS011;66330;52.166;9.978;2023-09-07T08:10:23;4.70;;;4.30;;
77276;SDS011;66330;52.166;9.978;2023-09-07T08:12:53;4.60;;;4.20;;
77276;SDS011;66330;52.166;9.978;2023-09-07T08:15:19;4.77;;;4.33;;
77276;SDS011;66330;52.166;9.978;2023-09-07T08:17:46;4.27;;;3.43;;
77276;SDS011;66330;52.166;9.978;2023-09-07T08:20:13;4.83;;;4.43;;
77276;SDS011;66330;52.166;9.978;2023-09-07T08:22:39;3.90;;;3.60;;
77276;SDS011;66330;52.166;9.978;2023-09-07T08:25:07;4.27;;;3.97;;
77276;SDS011;66330;52.166;9.978;2023-09-07T08:27:33;9.53;;;5.10;;
77276;SDS011;66330;52.166;9.978;2023-09-07T08:29:59;5.63;;;5.23;;
77276;SDS011;66330;52.166;9.978;2023-09-07T08:32:25;3.97;;;3.67;;
77276;SDS011;66330;52.166;9.978;2023-09-07T08:34:51;6.30;;;4.87;;
77276;SDS011;66330;52.166;9.978;2023-09-07T08:37:21;4.93;;;4.07;;
77276;SDS011;66330;52.166;9.978;2023-09-07T08:39:47;4.40;;;4.00;;
77276;SDS011;66330;52.166;9.978;2023-09-07T08:42:13;4.40;;;4.00;;
77276;SDS011;66330;52.166;9.978;2023-09-07T08:44:41;6.83;;;4.33;;
77276;SDS011;66330;52.166;9.978;2023-09-07T08:47:11;4.63;;;4.23;;
77276;SDS011;66330;52.166;9.978;2023-09-07T08:49:39;4.77;;;4.37;;
77276;SDS011;66330;52.166;9.978;2023-09-07T08:52:06;4.13;;;3.77;;
77276;SDS011;66330;52.166;9.978;2023-09-07T08:54:32;4.23;;;3.90;;
77276;SDS011;66330;52.166;9.978;2023-09-07T08:57:02;3.97;;;3.67;;
77276;SDS011;66330;52.166;9.978;2023-09-07T08:59:29;4.43;;;3.87;;
77276;SDS011;66330;52.166;9.978;2023-09-07T09:01:58;4.13;;;3.83;;
77276;SDS011;66330;52.166;9.978;2023-09-07T09:04:24;4.80;;;4.40;;
77276;SDS011;66330;52.166;9.978;2023-09-07T09:06:50;4.93;;;4.17;;
77276;SDS011;66330;52.166;9.978;2023-09-07T09:09:23;4.23;;;3.93;;
77276;SDS011;66330;52.166;9.978;2023-09-07T09:11:50;6.63;;;4.00;;
77276;SDS011;66330;52.166;9.978;2023-09-07T09:14:19;5.00;;;3.83;;
77276;SDS011;66330;52.166;9.978;2023-09-07T09:16:48;4.10;;;3.70;;
77276;SDS011;66330;52.166;9.978;2023-09-07T09:19:15;4.23;;;3.93;;
77276;SDS011;66330;52.166;9.978;2023-09-07T09:21:41;4.03;;;3.73;;
77276;SDS011;66330;52.166;9.978;2023-09-07T09:24:09;3.67;;;3.37;;
77276;SDS011;66330;52.166;9.978;2023-09-07T09:26:39;3.87;;;3.60;;
77276;SDS011;66330;52.166;9.978;2023-09-07T09:29:04;3.80;;;3.50;;
77276;SDS011;66330;52.166;9.978;2023-09-07T09:31:30;3.83;;;3.53;;
77276;SDS011;66330;52.166;9.978;2023-09-07T09:33:56;4.20;;;3.73;;
77276;SDS011;66330;52.166;9.978;2023-09-07T09:36:22;5.90;;;5.43;;
77276;SDS011;66330;52.166;9.978;2023-09-07T09:38:50;3.60;;;3.33;;
77276;SDS011;66330;52.166;9.978;2023-09-07T09:41:18;3.80;;;3.50;;
77276;SDS011;66330;52.166;9.978;2023-09-07T09:43:46;4.47;;;4.17;;
77276;SDS011;66330;52.166;9.978;2023-09-07T09:46:16;3.90;;;3.60;;
77276;SDS011;66330;52.166;9.978;2023-09-07T09:48:42;3.67;;;3.37;;
77276;SDS011;66330;52.166;9.978;2023-09-07T09:51:09;3.73;;;3.40;;
77276;SDS011;66330;52.166;9.978;2023-09-07T09:53:36;4.00;;;3.70;;
77276;SDS011;66330;52.166;9.978;2023-09-07T09:56:02;4.23;;;3.83;;
77276;SDS011;66330;52.166;9.978;2023-09-07T09:58:28;3.77;;;3.47;;
77276;SDS011;66330;52.166;9.978;2023-09-07T10:00:55;5.00;;;4.50;;
77276;SDS011;66330;52.166;9.978;2023-09-07T10:03:29;3.80;;;3.50;;
77276;SDS011;66330;52.166;9.978;2023-09-07T10:06:07;4.20;;;3.10;;
77276;SDS011;66330;52.166;9.978;2023-09-07T10:08:33;4.20;;;3.90;;
77276;SDS011;66330;52.166;9.978;2023-09-07T10:10:59;3.90;;;3.70;;
77276;SDS011;66330;52.166;9.978;2023-09-07T10:13:28;2.93;;;2.73;;
77276;SDS011;66330;52.166;9.978;2023-09-07T10:16:02;3.00;;;2.80;;
77276;SDS011;66330;52.166;9.978;2023-09-07T10:18:35;5.47;;;3.00;;
77276;SDS011;66330;52.166;9.978;2023-09-07T10:21:03;4.57;;;4.17;;
77276;SDS011;66330;52.166;9.978;2023-09-07T10:26:03;3.43;;;3.13;;
77276;SDS011;66330;52.166;9.978;2023-09-07T10:28:29;4.60;;;4.20;;
77276;SDS011;66330;52.166;9.978;2023-09-07T10:31:02;3.67;;;3.37;;
77276;SDS011;66330;52.166;9.978;2023-09-07T10:33:32;3.80;;;3.50;;
77276;SDS011;66330;52.166;9.978;2023-09-07T10:35:59;3.40;;;3.10;;
77276;SDS011;66330;52.166;9.978;2023-09-07T10:38:26;3.90;;;3.60;;
77276;SDS011;66330;52.166;9.978;2023-09-07T10:40:56;3.10;;;2.90;;
77276;SDS011;66330;52.166;9.978;2023-09-07T10:43:32;3.40;;;3.20;;
77276;SDS011;66330;52.166;9.978;2023-09-07T10:45:58;3.50;;;3.20;;
77276;SDS011;66330;52.166;9.978;2023-09-07T10:48:25;4.00;;;3.23;;
77276;SDS011;66330;52.166;9.978;2023-09-07T10:50:53;3.27;;;2.97;;
77276;SDS011;66330;52.166;9.978;2023-09-07T10:53:26;3.95;;;3.35;;
77276;SDS011;66330;52.166;9.978;2023-09-07T10:55:53;3.17;;;2.97;;
77276;SDS011;66330;52.166;9.978;2023-09-07T10:58:30;2.72;;;2.53;;
77276;SDS011;66330;52.166;9.978;2023-09-07T11:00:57;3.40;;;3.20;;
77276;SDS011;66330;52.166;9.978;2023-09-07T11:03:27;3.20;;;2.97;;
77276;SDS011;66330;52.166;9.978;2023-09-07T11:05:57;3.05;;;2.85;;
77276;SDS011;66330;52.166;9.978;2023-09-07T11:08:38;3.70;;;3.40;;
77276;SDS011;66330;52.166;9.978;2023-09-07T11:11:04;3.58;;;3.38;;
77276;SDS011;66330;52.166;9.978;2023-09-07T11:13:30;3.85;;;3.50;;
77276;SDS011;66330;52.166;9.978;2023-09-07T11:15:56;3.60;;;3.30;;
77276;SDS011;66330;52.166;9.978;2023-09-07T11:18:24;3.47;;;2.90;;
77276;SDS011;66330;52.166;9.978;2023-09-07T11:20:51;3.00;;;2.80;;
77276;SDS011;66330;52.166;9.978;2023-09-07T11:23:17;3.53;;;3.22;;
77276;SDS011;66330;52.166;9.978;2023-09-07T11:25:43;3.42;;;3.22;;
77276;SDS011;66330;52.166;9.978;2023-09-07T11:28:10;3.40;;;3.10;;
77276;SDS011;66330;52.166;9.978;2023-09-07T11:30:37;2.85;;;2.67;;
77276;SDS011;66330;52.166;9.978;2023-09-07T11:33:07;3.25;;;3.05;;
77276;SDS011;66330;52.166;9.978;2023-09-07T11:35:33;3.30;;;3.00;;
77276;SDS011;66330;52.166;9.978;2023-09-07T11:38:03;2.97;;;2.78;;
77276;SDS011;66330;52.166;9.978;2023-09-07T11:40:30;3.22;;;2.95;;
77276;SDS011;66330;52.166;9.978;2023-09-07T11:42:56;3.03;;;2.83;;
77276;SDS011;66330;52.166;9.978;2023-09-07T11:45:22;3.03;;;2.83;;
77276;SDS011;66330;52.166;9.978;2023-09-07T11:47:48;3.53;;;3.22;;
77276;SDS011;66330;52.166;9.978;2023-09-07T11:50:16;3.15;;;2.92;;
77276;SDS011;66330;52.166;9.978;2023-09-07T11:52:42;4.28;;;3.60;;
77276;SDS011;66330;52.166;9.978;2023-09-07T11:55:08;3.28;;;2.97;;
77276;SDS011;66330;52.166;9.978;2023-09-07T11:57:35;3.47;;;3.17;;
77276;SDS011;66330;52.166;9.978;2023-09-07T12:00:04;3.72;;;3.50;;
77276;SDS011;66330;52.166;9.978;2023-09-07T12:02:30;3.13;;;2.92;;
77276;SDS011;66330;52.166;9.978;2023-09-07T12:04:56;3.20;;;3.00;;
77276;SDS011;66330;52.166;9.978;2023-09-07T12:07:21;2.60;;;2.47;;
77276;SDS011;66330;52.166;9.978;2023-09-07T12:09:47;3.72;;;3.42;;
77276;SDS011;66330;52.166;9.978;2023-09-07T12:12:13;3.20;;;3.00;;
77276;SDS011;66330;52.166;9.978;2023-09-07T12:14:39;2.60;;;2.50;;
77276;SDS011;66330;52.166;9.978;2023-09-07T12:17:05;3.42;;;3.17;;
77276;SDS011;66330;52.166;9.978;2023-09-07T12:19:31;3.20;;;2.97;;
77276;SDS011;66330;52.166;9.978;2023-09-07T12:21:58;3.60;;;3.35;;
77276;SDS011;66330;52.166;9.978;2023-09-07T12:24:24;3.38;;;3.15;;
77276;SDS011;66330;52.166;9.978;2023-09-07T12:26:50;3.28;;;2.97;;
77276;SDS011;66330;52.166;9.978;2023-09-07T12:29:15;3.20;;;3.00;;
77276;SDS011;66330;52.166;9.978;2023-09-07T12:31:41;3.38;;;3.00;;
77276;SDS011;66330;52.166;9.978;2023-09-07T12:34:07;3.00;;;2.80;;
77276;SDS011;66330;52.166;9.978;2023-09-07T12:36:33;3.00;;;2.80;;
77276;SDS011;66330;52.166;9.978;2023-09-07T12:38:59;3.20;;;3.00;;
77276;SDS011;66330;52.166;9.978;2023-09-07T12:41:26;3.25;;;2.95;;
77276;SDS011;66330;52.166;9.978;2023-09-07T12:43:58;3.17;;;2.97;;
77276;SDS011;66330;52.166;9.978;2023-09-07T12:46:24;3.38;;;3.08;;
77276;SDS011;66330;52.166;9.978;2023-09-07T12:48:50;3.15;;;2.95;;
77276;SDS011;66330;52.166;9.978;2023-09-07T12:51:15;2.30;;;2.20;;
77276;SDS011;66330;52.166;9.978;2023-09-07T12:53:41;3.28;;;3.08;;
77276;SDS011;66330;52.166;9.978;2023-09-07T12:56:06;3.08;;;2.88;;
77276;SDS011;66330;52.166;9.978;2023-09-07T12:58:32;3.15;;;2.95;;
77276;SDS011;66330;52.166;9.978;2023-09-07T13:00:57;3.05;;;2.85;;
77276;SDS011;66330;52.166;9.978;2023-09-07T13:03:23;2.80;;;2.60;;
77276;SDS011;66330;52.166;9.978;2023-09-07T13:05:48;2.95;;;2.75;;
77276;SDS011;66330;52.166;9.978;2023-09-07T13:08:14;2.92;;;2.65;;
77276;SDS011;66330;52.166;9.978;2023-09-07T13:10:40;2.78;;;2.58;;
77276;SDS011;66330;52.166;9.978;2023-09-07T13:13:06;2.72;;;2.53;;
77276;SDS011;66330;52.166;9.978;2023-09-07T13:15:32;3.10;;;2.90;;
77276;SDS011;66330;52.166;9.978;2023-09-07T13:17:58;3.30;;;3.05;;
77276;SDS011;66330;52.166;9.978;2023-09-07T13:20:24;5.60;;;3.25;;
77276;SDS011;66330;52.166;9.978;2023-09-07T13:22:49;4.85;;;2.72;;
77276;SDS011;66330;52.166;9.978;2023-09-07T13:25:15;3.33;;;3.13;;
77276;SDS011;66330;52.166;9.978;2023-09-07T13:27:40;4.07;;;3.40;;
77276;SDS011;66330;52.166;9.978;2023-09-07T13:30:06;3.85;;;3.22;;
77276;SDS011;66330;52.166;9.978;2023-09-07T13:32:37;3.05;;;2.85;;
77276;SDS011;66330;52.166;9.978;2023-09-07T13:35:03;2.85;;;2.65;;
77276;SDS011;66330;52.166;9.978;2023-09-07T13:37:29;2.60;;;2.40;;
77276;SDS011;66330;52.166;9.978;2023-09-07T13:39:55;3.22;;;3.03;;
77276;SDS011;66330;52.166;9.978;2023-09-07T13:42:20;3.30;;;3.00;;
77276;SDS011;66330;52.166;9.978;2023-09-07T13:44:46;3.00;;;2.80;;
77276;SDS011;66330;52.166;9.978;2023-09-07T13:47:12;2.70;;;2.60;;
77276;SDS011;66330;52.166;9.978;2023-09-07T13:49:38;3.90;;;3.33;;
77276;SDS011;66330;52.166;9.978;2023-09-07T13:52:03;3.30;;;3.10;;
77276;SDS011;66330;52.166;9.978;2023-09-07T13:54:29;3.30;;;3.10;;
77276;SDS011;66330;52.166;9.978;2023-09-07T13:56:55;3.07;;;2.77;;
77276;SDS011;66330;52.166;9.978;2023-09-07T13:59:21;5.20;;;4.80;;
77276;SDS011;66330;52.166;9.978;2023-09-07T14:01:46;3.27;;;2.97;;
77276;SDS011;66330;52.166;9.978;2023-09-07T14:04:13;3.27;;;2.70;;
77276;SDS011;66330;52.166;9.978;2023-09-07T14:06:38;5.60;;;3.57;;
77276;SDS011;66330;52.166;9.978;2023-09-07T14:09:04;3.43;;;3.23;;
77276;SDS011;66330;52.166;9.978;2023-09-07T14:11:31;4.53;;;3.57;;
77276;SDS011;66330;52.166;9.978;2023-09-07T14:13:58;3.53;;;3.23;;
77276;SDS011;66330;52.166;9.978;2023-09-07T14:16:24;3.73;;;3.43;;
77276;SDS011;66330;52.166;9.978;2023-09-07T14:18:49;3.70;;;3.40;;
77276;SDS011;66330;52.166;9.978;2023-09-07T14:21:15;3.37;;;3.10;;
77276;SDS011;66330;52.166;9.978;2023-09-07T14:23:42;3.83;;;3.20;;
77276;SDS011;66330;52.166;9.978;2023-09-07T14:26:08;3.17;;;2.83;;
77276;SDS011;66330;52.166;9.978;2023-09-07T14:28:34;3.17;;;2.97;;
77276;SDS011;66330;52.166;9.978;2023-09-07T14:31:00;3.60;;;3.30;;
77276;SDS011;66330;52.166;9.978;2023-09-07T14:33:29;3.40;;;2.80;;
77276;SDS011;66330;52.166;9.978;2023-09-07T14:35:55;2.87;;;2.57;;
77276;SDS011;66330;52.166;9.978;2023-09-07T14:38:20;3.00;;;2.80;;
77276;SDS011;66330;52.166;9.978;2023-09-07T14:40:48;2.97;;;2.77;;
77276;SDS011;66330;52.166;9.978;2023-09-07T14:43:15;3.13;;;2.83;;
77276;SDS011;66330;52.166;9.978;2023-09-07T14:45:40;3.40;;;3.10;;
77276;SDS011;66330;52.166;9.978;2023-09-07T14:48:06;3.17;;;2.93;;